Relevés horaires Beauvechain (Belgique)


Relevés horaires à Beauvechain - Jeudi 06 Juill. 2017
Heure UTC1 Température [°C] Vent [km/h] Hum. [%] Pres.4 [hPa] Visi. [Km] Nébu. [octa] Préc.5 [mm] Cond.
2m. Res. Ros. Dir.2 Vit. Moy. Raf.3
23:00 21.1 21.1 12.7 NNO 3.7 -- 9.3 59 1014(0.0/3h) 20 -- -- --
22:00 21.9 21.9 12.6 OSO 7.4 -- 9.3 56 1014.5(0.3/3h) 20 -- -- --
21:00 22.3 22.3 16.7 SO 3.7 -- 13.0 71 1014.1(0.3/3h) 20 -- -- --
20:00 21.5 21.5 19.5 SE 5.6 -- 9.3 88 1013.8(-0.9/3h) 18 -- -- --
19:00 22.2 22.2 19.0 E 5.6 -- 9.3 82 1014.1(-1.2/3h) 20 -- -- --
18:00 22.7 22.7 18.9 E 5.6 -- 7.4 79 1013.7(-1.4/3h) 20 -- 0.2/12h
NA
17:00 24.6 24.6 18.1 E 7.4 -- 11.1 67 1014.6(-0.9/3h) 20 -- -- --
16:00 24.3 24.3 17.0 NNO 1.9 -- 11.1 64 1015.2(-1.3/3h) 15 7/8 -- --
15:00 23.4 23.4 18.8 SSE 5.6 -- 9.3 75 1015.2(-4.0/3h) 15 7/8 -- Etat du ciel inchangé
14:00 22.1 22.1 18.8 O 11.1 -- 0.0 82 1015.6(-1.5/3h) 15 6/8 -- Etat du ciel inchangé
13:00 20.4 20.4 18.9 O 11.1 -- 0.0 91 1016.8(-0.5/3h) 10 7/8 -- Etat du ciel inchangé
12:00 23.7 23.7 16.9 ONO 7.4 -- 11.1 66 1019.2(1.6/3h) 13 7/8 -- Il y a de la pluie faible à la station au moment de l'observation, un orage a eu lieu au cours de l'heure précédente mais est terminé au moment de l'observation
11:00 26.4 26.4 16.8 E 3.7 -- 9.3 56 1017(-1.0/3h) 13 3/8 -- --
10:00 25.0 25.0 16.5 ENE 5.6 -- 11.1 59 1017.2(-0.9/3h) 15 3/8 -- --
09:00 22.6 22.6 16.5 ENE 7.4 -- 11.1 68 1017.6(-0.7/3h) 12 3/8 -- --
08:00 20.6 20.6 15.9 ENE 5.6 -- 7.4 74 1018.2(-0.2/3h) 10 5/8 -- --
07:00 18.3 18.3 15.1 NNO 1.9 -- 7.4 82 1018.5(-0.1/3h) 15 5/8 -- --
06:00 17.2 17.2 14.0 ESE 5.6 -- 7.4 81 1018.6(-0.3/3h) 15 6/8 -- --
05:00 16.1 16.1 13.3 NNO 1.9 -- 5.6 83 1018.8(-0.3/3h) 15 6/8 -- --
04:00 15.5 15.5 12.7 NNO 1.9 -- 5.6 83 1018.7(-0.5/3h) 15 3/8 -- --
03:00 15.6 15.6 12.4 NNO 1.9 -- 3.7 81 1019.1(-0.2/3h) 20 -- -- --
02:00 15.5 15.5 12.7 NNO 1.9 -- 3.7 83 1019.2(-0.1/3h) 20 -- -- --
01:00 16.1 16.1 12.9 NNO 1.9 -- 3.7 81 1019.2(0.0/3h) 20 -- -- --
00:00 16.7 16.7 13.4 NNO 1.9 -- 9.3 81 1019.2(0.3/3h) 20 -- -- --

1 Coordinated Universal Time. Actuellement il est 01:00 locale et 00:00 UTC.

2 Le vent souffle depuis la direction indiquée vers la direction oposée.

3 Les rafales max. sont disponible 40 min après l'heure du relevé.

4 Pour les stations d'altitude (plus de 600m) le géopotentiel du niveau le plus proche de la pression obligatoire est indiqué.

5 Les stations disposant d'un diffuseur peuvent indiquer "trace". Cela signifie que des précipitations ont touchés le sol mais que la quantité est inférieure à 0.1 mm.

Récapitulatif de la journée
Température [°C] Vent [km/h] Ensoleillement4 [h] Precipitations totale5 [mm] Pression [Hpa]
Min1 Max.2 Moy.3 Max. Min Max.
15.1 27.1 0 13.0 0 h 0 min 0 1013.7 1019.2

1 Température minimale relevée entre 18:00 UTC la veille et 18:00 UTC le jour donné.

2 Température maximale relevée entre 06:00 UTC le jour donné et 06:00 UTC le lendemain.

3 Vent moyen de la journée basé sur les relevés horaires.

4 Ensoleillement en heures relevé entre 06:00 UTC la veille et 06:00 UTC le jour donné.

5 Précipitations totales tombées entre 06:00 UTC la jour donné et 06:00 UTC le lendemain.

Graphiques horaires